ADDS METAR Data INFO
IDs: Format: Raw Decoded Include TAF

Data at: 1013 UTC 14 Dec 2017

KMZH 140955Z AUTO 00000KT 10SM OVC014 M08/M10 A2995 RMK AO2
KMZH 140935Z AUTO 00000KT 10SM OVC014 M08/M10 A2995 RMK AO2
KMZH 140915Z AUTO 00000KT 10SM OVC012 M08/M11 A2995 RMK AO2
KMZH 140856Z AUTO 00000KT 10SM OVC012 M08/M11 A2995 RMK AO2
KMZH 140835Z AUTO 26003KT 10SM OVC014 M08/M11 A2994 RMK AO2
KMZH 140815Z AUTO 00000KT 10SM OVC014 M08/M11 A2995 RMK AO2
KMZH 140755Z AUTO 29004KT 10SM OVC014 M08/M11 A2994 RMK AO2
KMZH 140735Z AUTO 33003KT 10SM OVC014 M08/M11 A2993 RMK AO2
KMZH 140715Z AUTO 00000KT 10SM OVC014 M08/M11 A2992 RMK AO2
KMZH 140655Z AUTO 00000KT 10SM OVC014 M08/M10 A2992 RMK AO2
KMZH 140635Z AUTO 35004KT 10SM OVC014 M08/M10 A2993 RMK AO2
KMZH 140615Z AUTO 02006KT 10SM OVC014 M08/M11 A2993 RMK AO2
KMZH 140555Z AUTO 34004KT 10SM OVC014 M07/M10 A2992 RMK AO2
KMZH 140535Z AUTO 00000KT 10SM OVC014 M07/M10 A2992 RMK AO2
KMZH 140515Z AUTO 02003KT 10SM OVC014 M07/M10 A2991 RMK AO2
KMZH 140455Z AUTO 03003KT 10SM OVC014 M07/M10 A2991 RMK AO2
KMZH 140435Z AUTO 00000KT 10SM OVC014 M07/M10 A2991 RMK AO2
KMZH 140415Z AUTO 35003KT 10SM OVC014 M07/M10 A2991 RMK AO2
KMZH 140355Z AUTO 34005KT 10SM OVC014 M07/M10 A2990 RMK AO2
KMZH 140335Z AUTO 02006KT 10SM BKN014 OVC043 M07/M10 A2990 RMK AO2
KMZH 140315Z AUTO 01007KT 10SM SCT014 OVC043 M07/M10 A2990 RMK AO2
KMZH 140255Z AUTO 00000KT 10SM OVC043 M07/M10 A2989 RMK AO2
KMZH 140235Z AUTO 35006KT 10SM SCT016 OVC041 M06/M10 A2989 RMK AO2
KMZH 140215Z AUTO 34005KT 10SM OVC041 M06/M10 A2989 RMK AO2
KMZH 140155Z AUTO 36005KT 10SM -SN OVC041 M06/M09 A2988 RMK AO2
KMZH 140135Z AUTO 36006KT 7SM -SN OVC041 M06/M09 A2987 RMK AO2
KMZH 140115Z AUTO 36007KT 7SM -SN OVC039 M06/M09 A2985 RMK AO2
KMZH 140055Z AUTO 36007KT 10SM -SN OVC041 M05/M08 A2985 RMK AO2
KMZH 140035Z AUTO 36007KT 10SM -SN OVC041 M05/M08 A2984 RMK AO2
KMZH 140015Z AUTO 35006KT 10SM OVC037 M05/M08 A2983 RMK AO2
KMZH 132355Z AUTO 02006KT 10SM SCT016 OVC037 M05/M08 A2980 RMK AO2
KMZH 132335Z AUTO 01006KT 10SM BKN016 BKN028 OVC037 M05/M08 A2979 RMK AO2
KMZH 132315Z AUTO 35005KT 10SM SCT016 BKN029 OVC035 M05/M08 A2977 RMK AO2
KMZH 132255Z AUTO 34007KT 10SM BKN023 OVC030 M04/M08 A2976 RMK AO2
KMZH 132235Z AUTO 34003KT 7SM -SN BKN023 BKN032 OVC042 M04/M07 A2974 RMK AO2
KMZH 132215Z AUTO 01004KT 10SM SCT019 BKN036 OVC042 M04/M07 A2972 RMK AO2
KMZH 132155Z AUTO 01003KT 10SM BKN038 OVC044 M03/M07 A2972 RMK AO2
KMZH 132135Z AUTO 03007KT 10SM SCT028 SCT033 OVC043 M04/M07 A2970 RMK AO2
KMZH 132115Z AUTO 02007KT 7SM SCT020 BKN032 OVC042 M03/M07 A2969 RMK AO2
KMZH 132055Z AUTO 01010KT 5SM -SN BKN022 OVC028 M03/M07 A2967 RMK AO2
KMZH 132035Z AUTO 01006KT 7SM -SN SCT022 OVC030 M03/M07 A2966 RMK AO2
KMZH 132015Z AUTO 36007KT 10SM -SN SCT021 OVC030 M03/M07 A2964 RMK AO2
KMZH 131955Z AUTO 36007KT 7SM -SN BKN023 OVC030 M03/M07 A2963 RMK AO2
KMZH 131935Z AUTO 36007G14KT 7SM -SN SCT020 OVC025 M03/M07 A2961 RMK AO2
KMZH 131915Z AUTO 01011KT 7SM -SN OVC025 M03/M07 A2960 RMK AO2
KMZH 131855Z AUTO 36009G15KT 342V042 4SM -SN SCT020 OVC027 M03/M07 A2958 RMK AO2
KMZH 131835Z AUTO 36007KT 5SM -SN SCT018 OVC027 M03/M07 A2958 RMK AO2
KMZH 131815Z AUTO 35010G14KT 5SM -SN OVC023 M03/M07 A2958 RMK AO2
KMZH 131755Z AUTO 36009G15KT 5SM HZ OVC019 M04/M07 A2957 RMK AO2
KMZH 131735Z AUTO 35010KT 10SM OVC017 M05/M08 A2956 RMK AO2
KMZH 131715Z AUTO 36010G15KT 10SM OVC017 M05/M08 A2955 RMK AO2
KMZH 131655Z AUTO 36009G17KT 10SM OVC017 M05/M08 A2954 RMK AO2
KMZH 131635Z AUTO 36010G15KT 10SM OVC017 M06/M08 A2953 RMK AO2
KMZH 131615Z AUTO 36009G15KT 10SM OVC015 M06/M08 A2952 RMK AO2
KMZH 131555Z AUTO 34008KT 10SM OVC013 M06/M08 A2952 RMK AO2
KMZH 131535Z AUTO 34008KT 10SM OVC013 M07/M09 A2951 RMK AO2
KMZH 131515Z AUTO 00000KT 10SM OVC011 M07/M09 A2949 RMK AO2
KMZH 131455Z AUTO 00000KT 10SM BKN011 OVC021 M07/M09 A2948 RMK AO2
KMZH 131435Z AUTO 00000KT 10SM SCT009 OVC021 M07/M10 A2948 RMK AO2
KMZH 131415Z AUTO 00000KT 7SM OVC021 M07/M10 A2946 RMK AO2
KMZH 131355Z AUTO 00000KT 10SM OVC021 M07/M10 A2945 RMK AO2
KMZH 131335Z AUTO 00000KT 10SM OVC021 M08/M10 A2945 RMK AO2
KMZH 131315Z AUTO 00000KT 10SM OVC021 M08/M10 A2943 RMK AO2
KMZH 131255Z AUTO 00000KT 5SM BR SCT006 SCT014 OVC023 M08/M10 A2943 RMK AO2 P0002
KMZH 131235Z AUTO 00000KT 1 3/4SM -SN BKN006 OVC014 M08/M10 A2941 RMK AO2 P0002
KMZH 131215Z AUTO 00000KT 1 1/4SM SN OVC006 M08/M10 A2940 RMK AO2
KMZH 131155Z AUTO 02005KT 1 1/4SM -SN OVC006 M08/M10 A2940 RMK AO2
KMZH 131135Z AUTO 00000KT 2SM -SN OVC017 M08/M10 A2939 RMK AO2
KMZH 131115Z AUTO 06003KT 2SM -SN SCT010 SCT014 OVC028 M08/M10 A2938 RMK AO2
KMZH 131055Z AUTO 04005KT 1 3/4SM -SN SCT018 OVC028 M08/M10 A2938 RMK AO2 P0002
KMZH 131035Z AUTO 04005KT 1SM -SN BKN006 BKN009 OVC016 M07/M09 A2940 RMK AO2 P0002
KMZH 131015Z AUTO 00000KT 1SM SN BKN006 OVC015 M07/M09 A2939 RMK AO2 P0001
KMZH 130955Z AUTO 00000KT 3SM -SN SCT005 BKN015 OVC040 M07/M09 A2940 RMK AO2 P0003
KMZH 130935Z AUTO 11003KT 1 1/4SM SN SCT005 OVC013 M07/M09 A2940 RMK AO2 P0002
KMZH 130915Z AUTO 08003KT 4SM -SN OVC013 M07/M10 A2942 RMK AO2 P0001
KMZH 130855Z AUTO 00000KT 5SM -SN OVC013 M07/M10 A2944 RMK AO2
KMZH 130835Z AUTO 10003KT 10SM UP OVC013 M07/M10 A2944 RMK AO2
KMZH 130815Z AUTO 13004KT 10SM UP OVC013 M08/M10 A2944 RMK AO2
KMZH 130755Z AUTO 10003KT 10SM OVC013 M08/M10 A2945 RMK AO2
KMZH 130735Z AUTO 13004KT 10SM OVC013 M08/M11 A2947 RMK AO2
KMZH 130715Z AUTO 14003KT 7SM OVC013 M08/M11 A2949 RMK AO2
KMZH 130655Z AUTO 13004KT 10SM OVC013 M08/M11 A2950 RMK AO2
KMZH 130635Z AUTO 12004KT 10SM OVC013 M09/M11 A2952 RMK AO2
KMZH 130615Z AUTO 00000KT 10SM OVC013 M09/M11 A2954 RMK AO2
KMZH 130555Z AUTO 13003KT 10SM OVC013 M08/M11 A2955 RMK AO2
KMZH 130535Z AUTO 00000KT 10SM OVC013 M09/M11 A2957 RMK AO2
KMZH 130515Z AUTO 00000KT 10SM OVC013 M09/M11 A2960 RMK AO2
KMZH 130455Z AUTO 14006KT 10SM OVC013 M09/M12 A2960 RMK AO2
KMZH 130435Z AUTO 00000KT 10SM OVC015 M09/M12 A2962 RMK AO2
KMZH 130415Z AUTO 14004KT 10SM OVC015 M09/M12 A2964 RMK AO2
KMZH 130355Z AUTO 00000KT 10SM OVC015 M09/M12 A2966 RMK AO2
KMZH 130335Z AUTO 13003KT 10SM OVC015 M10/M12 A2968 RMK AO2
KMZH 130315Z AUTO 16004KT 10SM OVC015 M10/M12 A2969 RMK AO2
KMZH 130255Z AUTO 17005KT 10SM OVC013 M10/M12 A2971 RMK AO2
KMZH 130235Z AUTO 16003KT 10SM OVC013 M10/M12 A2972 RMK AO2
KMZH 130215Z AUTO 15004KT 10SM OVC013 M10/M12 A2974 RMK AO2
KMZH 130155Z AUTO 16003KT 10SM OVC015 M10/M12 A2977 RMK AO2
KMZH 130135Z AUTO 00000KT 10SM OVC015 M10/M12 A2978 RMK AO2
KMZH 130115Z AUTO 16003KT 10SM OVC015 M10/M12 A2980 RMK AO2
KMZH 130055Z AUTO 15003KT 10SM OVC013 M10/M12 A2980 RMK AO2
KMZH 130035Z AUTO 16003KT 10SM OVC015 M10/M12 A2982 RMK AO2
KMZH 130015Z AUTO 18003KT 10SM OVC015 M10/M12 A2983 RMK AO2
KMZH 122355Z AUTO 00000KT 10SM OVC017 M10/M12 A2984 RMK AO2
KMZH 122335Z AUTO 17003KT 3SM -SN SCT019 OVC026 M10/M12 A2984 RMK AO2
KMZH 122315Z AUTO 17003KT 3SM -SN SCT024 OVC028 M10/M12 A2985 RMK AO2
KMZH 122255Z AUTO 18003KT 3SM -SN BKN024 OVC030 M10/M12 A2986 RMK AO2
KMZH 122235Z AUTO 17004KT 3SM -SN OVC024 M10/M12 A2987 RMK AO2
KMZH 122215Z AUTO 18005KT 3SM -SN OVC026 M10/M12 A2988 RMK AO2